Time;durP1;ratioP1;P1;durP2;ratioP2;P2;SDS_P1;SDS_P2;PMS_P1;PMS_P2;Temp;Humidity;BMP_temperature;BMP_pressure;BME280_temperature;BME280_humidity;BME280_pressure;Samples;Min_cycle;Max_cycle;Signal;HPM_P1;HPM_P2
2023/12/16 00:01:39;;;;;;;36.27;12.17;;;;;;;4.85;100.00;103005.31;5057738;28;20209;-72
2023/12/16 00:04:05;;;;;;;30.30;11.67;;;;;;;4.87;100.00;103006.69;5061783;28;20191;-71
2023/12/16 00:06:33;;;;;;;35.07;12.47;;;;;;;4.88;100.00;102999.66;5062544;28;20187;-71
2023/12/16 00:08:59;;;;;;;33.03;12.60;;;;;;;4.90;100.00;103000.19;5063223;28;20221;-72
2023/12/16 00:11:25;;;;;;;40.80;12.60;;;;;;;4.91;100.00;102997.34;5043964;28;20209;-71
2023/12/16 00:13:53;;;;;;;33.70;12.50;;;;;;;4.93;100.00;103000.53;5060095;28;20211;-72
2023/12/16 00:16:19;;;;;;;35.90;12.10;;;;;;;4.94;100.00;102991.69;5031036;28;20192;-72
2023/12/16 00:18:45;;;;;;;31.00;11.97;;;;;;;4.98;100.00;102990.16;5052511;28;20212;-72
2023/12/16 00:21:12;;;;;;;31.27;12.47;;;;;;;4.99;100.00;102993.59;5053554;28;20196;-71
2023/12/16 00:23:40;;;;;;;35.03;12.43;;;;;;;4.99;100.00;102977.88;5039967;28;20226;-73
2023/12/16 00:26:06;;;;;;;36.50;13.27;;;;;;;4.99;100.00;102983.94;5047430;28;20219;-74
2023/12/16 00:28:32;;;;;;;29.63;11.27;;;;;;;4.99;100.00;102986.56;5037704;28;20226;-73
2023/12/16 00:30:59;;;;;;;33.40;12.70;;;;;;;5.01;100.00;102991.53;5040916;28;20207;-75
2023/12/16 00:33:25;;;;;;;37.80;13.30;;;;;;;5.01;100.00;102992.34;5036946;28;20192;-74
2023/12/16 00:35:52;;;;;;;30.10;12.07;;;;;;;5.02;100.00;102995.78;5039162;28;20196;-74
2023/12/16 00:38:18;;;;;;;34.43;12.40;;;;;;;5.03;100.00;102997.34;5037743;28;20211;-72
2023/12/16 00:40:46;;;;;;;30.80;12.17;;;;;;;5.03;100.00;102998.13;5041074;28;20199;-74
2023/12/16 00:43:12;;;;;;;39.03;13.10;;;;;;;5.04;100.00;103002.38;5042657;28;20284;-73
2023/12/16 00:45:38;;;;;;;38.03;12.60;;;;;;;5.06;100.00;103005.53;5024673;28;20191;-74
2023/12/16 00:48:05;;;;;;;32.57;12.60;;;;;;;5.08;100.00;103002.69;5038668;28;20216;-73
2023/12/16 00:50:31;;;;;;;32.77;13.10;;;;;;;5.10;100.00;102993.59;5042456;28;20210;-75
2023/12/16 00:52:58;;;;;;;32.03;12.90;;;;;;;5.12;100.00;102996.00;5038116;28;20199;-75
2023/12/16 00:55:24;;;;;;;42.20;14.50;;;;;;;5.13;100.00;102990.50;5041728;28;20687;-73
2023/12/16 00:57:52;;;;;;;32.97;14.00;;;;;;;5.13;100.00;102985.25;5024077;28;20428;-74
2023/12/16 01:00:19;;;;;;;36.67;12.77;;;;;;;5.15;100.00;102995.50;5040944;28;20207;-74
2023/12/16 01:02:45;;;;;;;36.53;13.00;;;;;;;5.15;100.00;102998.94;5038649;28;20215;-73
2023/12/16 01:05:11;;;;;;;44.70;14.30;;;;;;;5.16;100.00;103011.00;5040490;28;20199;-72
2023/12/16 01:07:38;;;;;;;42.83;14.13;;;;;;;5.18;100.00;103018.63;5039891;28;20204;-74
2023/12/16 01:10:05;;;;;;;35.80;13.17;;;;;;;5.18;100.00;103024.66;5042211;28;20199;-75
2023/12/16 01:12:31;;;;;;;37.40;13.13;;;;;;;5.20;100.00;103034.91;5034186;28;20210;-73
2023/12/16 01:14:59;;;;;;;40.17;14.47;;;;;;;5.20;100.00;103027.03;5037809;28;20200;-73
2023/12/16 01:17:25;;;;;;;39.37;14.03;;;;;;;5.20;100.00;103025.22;5041092;28;20199;-73
2023/12/16 01:19:51;;;;;;;41.10;15.10;;;;;;;5.22;100.00;103031.03;5039970;28;20219;-74
2023/12/16 01:22:18;;;;;;;45.27;14.50;;;;;;;5.23;100.00;103029.22;5039244;28;20203;-74
2023/12/16 01:24:44;;;;;;;43.57;14.40;;;;;;;5.24;100.00;103031.59;5044353;28;20211;-75
2023/12/16 01:27:10;;;;;;;41.13;14.33;;;;;;;5.26;100.00;103040.03;5022556;28;20730;-74
2023/12/16 01:29:37;;;;;;;32.97;12.53;;;;;;;5.28;100.00;103031.94;5025676;28;20556;-75
2023/12/16 01:32:05;;;;;;;41.40;13.83;;;;;;;5.29;100.00;103023.06;5037196;28;20204;-74
2023/12/16 01:34:32;;;;;;;34.20;13.90;;;;;;;5.30;100.00;103014.97;5022868;28;20311;-72
2023/12/16 01:36:59;;;;;;;50.70;14.77;;;;;;;5.31;100.00;103021.78;5037020;28;20212;-74
2023/12/16 01:39:25;;;;;;;40.07;14.43;;;;;;;5.34;100.00;103028.41;5040331;28;20228;-74
2023/12/16 01:41:52;;;;;;;40.60;14.57;;;;;;;5.35;100.00;103030.78;5042425;28;20198;-74
2023/12/16 01:44:18;;;;;;;34.87;14.23;;;;;;;5.37;100.00;103027.91;5033119;28;20398;-74
2023/12/16 01:46:45;;;;;;;39.40;14.53;;;;;;;5.38;100.00;103026.91;5040923;28;20191;-72
2023/12/16 01:49:13;;;;;;;46.13;14.07;;;;;;;5.40;100.00;103030.09;5037958;28;20219;-74
2023/12/16 01:51:39;;;;;;;45.20;15.53;;;;;;;5.41;100.00;103026.44;5036993;28;20206;-74
2023/12/16 01:54:08;;;;;;;39.40;14.27;;;;;;;5.42;100.00;103033.25;5036383;28;20840;-75
2023/12/16 01:56:35;;;;;;;40.10;16.20;;;;;;;5.42;100.00;103026.22;5039147;28;20214;-75
2023/12/16 01:59:02;;;;;;;44.60;14.80;;;;;;;5.44;100.00;103029.38;5026610;28;20341;-74
2023/12/16 02:01:28;;;;;;;41.77;14.17;;;;;;;5.45;100.00;103024.94;5041127;28;20207;-75
2023/12/16 02:03:55;;;;;;;35.27;14.40;;;;;;;5.47;100.00;103025.50;5039465;28;20223;-74
2023/12/16 02:06:23;;;;;;;38.87;14.97;;;;;;;5.48;100.00;103033.13;5038600;28;20326;-72
2023/12/16 02:08:50;;;;;;;38.03;14.83;;;;;;;5.48;100.00;103035.75;5019590;28;20515;-74
2023/12/16 02:11:16;;;;;;;35.60;14.23;;;;;;;5.49;100.00;103024.25;5041320;28;20196;-72
2023/12/16 02:13:43;;;;;;;40.27;14.20;;;;;;;5.50;100.00;103019.81;5041457;28;20274;-74
2023/12/16 02:16:10;;;;;;;40.97;14.50;;;;;;;5.50;100.00;103028.44;5022006;28;20203;-74
2023/12/16 02:18:36;;;;;;;45.33;15.03;;;;;;;5.52;100.00;103022.97;5038111;28;20743;-75
2023/12/16 02:21:03;;;;;;;37.57;14.47;;;;;;;5.51;100.00;103018.78;5037636;28;20191;-74
2023/12/16 02:23:30;;;;;;;49.20;14.40;;;;;;;5.52;100.00;103026.41;5018151;28;20243;-74
2023/12/16 02:25:57;;;;;;;45.57;14.93;;;;;;;5.52;100.00;103015.13;5040654;28;20204;-75
2023/12/16 02:28:23;;;;;;;45.73;14.70;;;;;;;5.53;100.00;103022.75;5036940;28;20223;-74
2023/12/16 02:30:49;;;;;;;42.83;14.17;;;;;;;5.54;100.00;103026.97;5039194;28;20198;-74
2023/12/16 02:33:17;;;;;;;38.00;13.63;;;;;;;5.55;100.00;103022.53;5039241;28;20195;-74
2023/12/16 02:35:43;;;;;;;37.37;13.90;;;;;;;5.55;100.00;103028.56;5049450;28;20214;-74
2023/12/16 02:38:10;;;;;;;40.67;13.80;;;;;;;5.57;100.00;103026.50;5037486;28;20218;-72
2023/12/16 02:40:42;;;;;;;47.30;14.93;;;;;;;5.58;100.00;103035.16;5038365;28;20241;-74
2023/12/16 02:43:08;;;;;;;46.00;15.10;;;;;;;5.59;100.00;103034.94;5037511;28;20234;-73
2023/12/16 02:45:34;;;;;;;46.67;15.67;;;;;;;5.59;100.00;103032.31;5038271;28;20208;-74
2023/12/16 02:48:01;;;;;;;43.60;15.17;;;;;;;5.59;100.00;103037.53;5021487;28;20230;-75
2023/12/16 02:50:27;;;;;;;39.77;14.50;;;;;;;5.62;100.00;103036.28;5036829;28;20671;-73
2023/12/16 02:52:53;;;;;;;37.87;13.87;;;;;;;5.62;100.00;103038.91;5038299;28;20207;-73
2023/12/16 02:55:20;;;;;;;43.13;15.17;;;;;;;5.62;100.00;103034.47;5040141;28;20253;-75
2023/12/16 02:57:47;;;;;;;47.10;15.47;;;;;;;5.63;100.00;103032.63;5036210;28;20405;-74
2023/12/16 03:00:14;;;;;;;40.40;14.07;;;;;;;5.63;100.00;103030.00;5038994;28;20200;-74
2023/12/16 03:02:41;;;;;;;40.77;15.47;;;;;;;5.63;100.00;103045.75;5042421;28;20233;-73
2023/12/16 03:05:08;;;;;;;43.90;14.17;;;;;;;5.59;100.00;103044.63;5036610;28;20257;-74
2023/12/16 03:07:34;;;;;;;42.13;15.40;;;;;;;5.57;100.00;103044.06;5025002;28;20199;-73
2023/12/16 03:10:00;;;;;;;40.93;14.40;;;;;;;5.56;100.00;103050.31;5038256;28;20198;-74
2023/12/16 03:12:27;;;;;;;37.77;13.57;;;;;;;5.56;100.00;103060.81;5038399;28;20258;-74
2023/12/16 03:14:55;;;;;;;42.77;15.63;;;;;;;5.54;100.00;103055.78;5036321;28;20204;-74
2023/12/16 03:17:21;;;;;;;40.83;15.97;;;;;;;5.55;100.00;103059.22;5035488;28;21557;-74
2023/12/16 03:19:47;;;;;;;37.57;14.30;;;;;;;5.55;100.00;103061.84;5040254;28;20281;-74
2023/12/16 03:22:14;;;;;;;39.23;14.90;;;;;;;5.53;100.00;103054.22;5038087;28;20766;-74
2023/12/16 03:24:40;;;;;;;43.10;14.87;;;;;;;5.55;100.00;103056.59;5041446;28;20212;-74
2023/12/16 03:27:06;;;;;;;40.07;14.67;;;;;;;5.55;100.00;103040.88;5018281;28;20208;-74
2023/12/16 03:29:33;;;;;;;48.23;13.60;;;;;;;5.55;100.00;103046.91;5040187;28;20298;-73
2023/12/16 03:32:00;;;;;;;41.60;14.27;;;;;;;5.54;100.00;103047.16;5039375;28;20214;-74
2023/12/16 03:34:30;;;;;;;36.10;13.70;;;;;;;5.53;100.00;103051.59;5040384;28;20207;-74
2023/12/16 03:36:56;;;;;;;48.00;14.47;;;;;;;5.54;100.00;103050.56;5020803;28;20582;-74
2023/12/16 03:39:22;;;;;;;47.50;16.27;;;;;;;5.52;100.00;103043.94;5038539;28;20219;-75
2023/12/16 03:41:49;;;;;;;36.37;13.60;;;;;;;5.51;100.00;103051.03;5039381;28;20195;-74
2023/12/16 03:44:15;;;;;;;45.90;13.73;;;;;;;5.49;100.00;103054.91;5040130;28;20212;-74
2023/12/16 03:46:41;;;;;;;41.07;13.90;;;;;;;5.51;100.00;103052.84;5023524;28;22297;-74
2023/12/16 03:49:09;;;;;;;43.27;14.30;;;;;;;5.49;100.00;103058.31;5035971;28;20230;-75
2023/12/16 03:51:35;;;;;;;41.73;14.80;;;;;;;5.51;100.00;103055.47;5041255;28;20202;-73
2023/12/16 03:54:02;;;;;;;43.63;14.20;;;;;;;5.51;100.00;103061.50;5041831;28;20199;-73
2023/12/16 03:56:28;;;;;;;42.07;13.93;;;;;;;5.53;100.00;103058.63;5038579;28;20310;-74
2023/12/16 03:58:54;;;;;;;35.17;13.33;;;;;;;5.52;100.00;103057.84;5022131;28;20803;-72
2023/12/16 04:01:21;;;;;;;43.90;14.40;;;;;;;5.53;100.00;103054.22;5038011;28;20219;-74
2023/12/16 04:03:47;;;;;;;52.77;15.07;;;;;;;5.54;100.00;103050.56;5021233;28;20595;-74
2023/12/16 04:06:15;;;;;;;34.87;13.20;;;;;;;5.55;100.00;103046.13;5040797;28;20700;-74
2023/12/16 04:08:42;;;;;;;44.70;13.57;;;;;;;5.55;100.00;103051.34;5036685;28;20220;-73
2023/12/16 04:11:09;;;;;;;41.27;13.73;;;;;;;5.54;100.00;103055.78;5037933;28;20195;-75
2023/12/16 04:13:35;;;;;;;37.20;13.77;;;;;;;5.53;100.00;103056.00;5041979;28;20208;-75
2023/12/16 04:16:03;;;;;;;32.67;13.07;;;;;;;5.53;100.00;103059.44;5043448;28;20203;-74
2023/12/16 04:18:30;;;;;;;46.23;14.43;;;;;;;5.53;100.00;103071.75;5038048;28;20238;-74
2023/12/16 04:20:56;;;;;;;43.77;14.73;;;;;;;5.52;100.00;103076.19;5044122;28;20207;-73
2023/12/16 04:23:24;;;;;;;50.83;14.33;;;;;;;5.51;100.00;103079.84;5043520;28;20595;-74
2023/12/16 04:25:50;;;;;;;39.53;12.87;;;;;;;5.51;100.00;103085.09;5045453;28;20569;-75
2023/12/16 04:28:16;;;;;;;43.43;13.30;;;;;;;5.51;100.00;103085.09;5039791;28;20231;-72
2023/12/16 04:30:42;;;;;;;41.97;13.27;;;;;;;5.52;100.00;103091.13;5039899;28;20202;-73
2023/12/16 04:33:09;;;;;;;37.00;13.03;;;;;;;5.52;100.00;103091.13;5041653;28;20426;-72
2023/12/16 04:35:35;;;;;;;35.73;12.60;;;;;;;5.51;100.00;103092.97;5043507;28;20196;-74
2023/12/16 04:38:01;;;;;;;35.53;12.33;;;;;;;5.51;100.00;103092.97;5042132;28;20223;-72
2023/12/16 04:40:29;;;;;;;34.33;13.47;;;;;;;5.52;100.00;103094.53;5038401;28;20542;-74
2023/12/16 04:42:56;;;;;;;35.53;12.97;;;;;;;5.52;100.00;103099.78;5046050;28;20551;-74
2023/12/16 04:45:22;;;;;;;36.67;12.97;;;;;;;5.53;100.00;103097.94;5039669;28;20253;-74
2023/12/16 04:47:48;;;;;;;32.90;13.30;;;;;;;5.53;100.00;103090.91;5046426;28;20519;-75
2023/12/16 04:50:15;;;;;;;29.73;12.83;;;;;;;5.53;100.00;103085.66;5041472;28;20206;-73
2023/12/16 04:52:41;;;;;;;34.23;13.00;;;;;;;5.55;100.00;103080.19;5025528;28;20214;-74
2023/12/16 04:55:08;;;;;;;41.37;13.50;;;;;;;5.53;100.00;103083.03;5036950;28;20194;-73
2023/12/16 04:57:36;;;;;;;44.73;13.27;;;;;;;5.54;100.00;103078.59;5039566;28;20259;-73
2023/12/16 05:00:05;;;;;;;43.53;12.27;;;;;;;5.54;100.00;103084.63;5023474;28;20237;-73
2023/12/16 05:02:31;;;;;;;39.37;13.03;;;;;;;5.53;100.00;103080.41;5041220;28;20226;-73
2023/12/16 05:04:57;;;;;;;40.10;12.70;;;;;;;5.53;100.00;103082.22;5042659;28;20208;-73
2023/12/16 05:07:24;;;;;;;37.53;12.60;;;;;;;5.52;100.00;103064.91;5041726;28;20282;-75
2023/12/16 05:09:50;;;;;;;39.07;13.13;;;;;;;5.51;100.00;103052.84;5025596;28;20227;-74
2023/12/16 05:12:16;;;;;;;35.97;13.03;;;;;;;5.51;100.00;103047.59;5043128;28;20202;-73
2023/12/16 05:14:44;;;;;;;36.67;12.50;;;;;;;5.48;100.00;103046.25;5038064;28;20199;-75
2023/12/16 05:17:10;;;;;;;37.30;13.70;;;;;;;5.48;100.00;103043.63;5020482;28;20216;-73
2023/12/16 05:19:37;;;;;;;27.77;12.10;;;;;;;5.47;100.00;103043.84;5023359;28;20749;-74
2023/12/16 05:22:03;;;;;;;28.33;12.00;;;;;;;5.46;100.00;103047.50;5041333;28;20681;-72
2023/12/16 05:24:30;;;;;;;40.73;12.80;;;;;;;5.46;100.00;103047.50;5041523;28;20214;-74
2023/12/16 05:26:56;;;;;;;37.67;13.23;;;;;;;5.45;100.00;103059.00;5044677;28;20229;-74
2023/12/16 05:29:22;;;;;;;34.27;12.57;;;;;;;5.43;100.00;103058.44;5043148;28;20215;-74
2023/12/16 05:31:50;;;;;;;32.27;12.23;;;;;;;5.42;100.00;103065.50;5044444;28;20191;-74
2023/12/16 05:34:16;;;;;;;33.00;12.33;;;;;;;5.42;100.00;103064.69;5040412;28;20208;-73
2023/12/16 05:36:43;;;;;;;34.73;11.67;;;;;;;5.42;100.00;103064.69;5043490;28;20544;-73
2023/12/16 05:39:09;;;;;;;38.07;13.03;;;;;;;5.39;100.00;103076.44;5039386;28;20241;-74
2023/12/16 05:41:36;;;;;;;35.83;12.30;;;;;;;5.37;100.00;103077.69;5044907;28;20213;-75
2023/12/16 05:44:02;;;;;;;40.53;11.97;;;;;;;5.35;100.00;103077.94;5040160;28;20219;-74
2023/12/16 05:46:29;;;;;;;38.53;12.10;;;;;;;5.31;100.00;103082.03;5023882;28;20294;-74
2023/12/16 05:48:56;;;;;;;32.67;13.00;;;;;;;5.28;100.00;103084.34;5043253;28;20219;-73
2023/12/16 05:51:23;;;;;;;40.90;13.40;;;;;;;5.24;100.00;103085.81;5038563;28;20191;-74
2023/12/16 05:53:49;;;;;;;45.50;12.77;;;;;;;5.21;100.00;103094.09;5044732;28;20744;-75
2023/12/16 05:56:15;;;;;;;37.90;12.77;;;;;;;5.19;100.00;103096.19;5042963;28;20199;-74
2023/12/16 05:58:42;;;;;;;31.50;11.77;;;;;;;5.16;100.00;103105.28;5041381;28;20582;-75
2023/12/16 06:01:08;;;;;;;29.67;12.50;;;;;;;5.16;100.00;103114.94;5043316;28;20700;-74
2023/12/16 06:03:34;;;;;;;28.73;12.00;;;;;;;5.13;100.00;103125.91;5022087;28;20245;-74
2023/12/16 06:06:02;;;;;;;38.83;11.93;;;;;;;5.11;100.00;103123.50;5039396;28;20674;-75
2023/12/16 06:08:29;;;;;;;35.60;13.13;;;;;;;5.11;100.00;103126.13;5038056;28;20478;-74
2023/12/16 06:10:55;;;;;;;34.23;13.03;;;;;;;5.11;100.00;103125.31;5039089;28;20200;-73
2023/12/16 06:13:21;;;;;;;33.97;12.87;;;;;;;5.11;100.00;103133.16;5024693;28;20211;-72
2023/12/16 06:15:48;;;;;;;31.60;12.13;;;;;;;5.11;100.00;103136.59;5037050;28;20658;-74
2023/12/16 06:18:14;;;;;;;34.47;11.67;;;;;;;5.11;100.00;103136.59;5039963;28;20232;-74
2023/12/16 06:20:40;;;;;;;34.27;12.63;;;;;;;5.12;100.00;103132.94;5044229;28;20206;-75
2023/12/16 06:23:08;;;;;;;37.47;12.57;;;;;;;5.12;100.00;103134.78;5043121;28;20199;-74
2023/12/16 06:25:34;;;;;;;36.63;12.97;;;;;;;5.13;100.00;103133.75;5039893;28;20223;-75
2023/12/16 06:28:01;;;;;;;35.60;11.60;;;;;;;5.13;100.00;103126.69;5041717;28;20222;-75
2023/12/16 06:30:28;;;;;;;29.53;11.67;;;;;;;5.15;100.00;103129.06;5037409;28;20203;-75
2023/12/16 06:32:54;;;;;;;41.30;13.60;;;;;;;5.15;100.00;103123.84;5041309;28;20192;-73
2023/12/16 06:35:20;;;;;;;38.27;12.87;;;;;;;5.15;100.00;103122.03;5036457;28;20204;-74
2023/12/16 06:37:47;;;;;;;42.87;12.53;;;;;;;5.17;100.00;103132.25;5042528;28;20188;-74
2023/12/16 06:40:14;;;;;;;32.27;12.10;;;;;;;5.17;100.00;103132.25;5038659;28;20253;-74
2023/12/16 06:42:41;;;;;;;31.60;11.50;;;;;;;5.16;100.00;103130.66;5041314;28;20192;-74
2023/12/16 06:45:09;;;;;;;34.97;11.90;;;;;;;5.17;100.00;103142.72;5043697;28;20207;-75
2023/12/16 06:47:37;;;;;;;28.67;11.40;;;;;;;5.18;100.00;103146.97;5041656;28;20199;-74
2023/12/16 06:50:04;;;;;;;33.63;12.63;;;;;;;5.18;100.00;103158.22;5042125;28;20203;-74
2023/12/16 06:52:30;;;;;;;31.43;11.03;;;;;;;5.19;100.00;103162.44;5025529;28;20212;-75
2023/12/16 06:54:56;;;;;;;33.17;11.43;;;;;;;5.20;100.00;103160.63;5039318;28;20200;-74
2023/12/16 06:57:24;;;;;;;31.67;12.27;;;;;;;5.20;100.00;103164.06;5034139;28;20195;-74
2023/12/16 06:59:51;;;;;;;34.60;11.33;;;;;;;5.21;100.00;103167.44;5042678;28;20223;-72
2023/12/16 07:02:17;;;;;;;33.70;12.43;;;;;;;5.22;100.00;103163.78;5037073;28;20200;-73
2023/12/16 07:04:43;;;;;;;36.20;12.97;;;;;;;5.20;100.00;103163.25;5042180;28;20203;-75
2023/12/16 07:07:10;;;;;;;32.90;11.83;;;;;;;5.22;100.00;103158.56;5041433;28;20716;-74
2023/12/16 07:09:36;;;;;;;36.37;11.17;;;;;;;5.22;100.00;103162.00;5036314;28;20210;-73
2023/12/16 07:12:03;;;;;;;39.40;10.97;;;;;;;5.22;100.00;103151.50;5020660;28;20211;-74
2023/12/16 07:14:30;;;;;;;32.10;10.77;;;;;;;5.23;100.00;103149.69;5039502;28;20201;-75
2023/12/16 07:16:57;;;;;;;30.53;11.00;;;;;;;5.25;100.00;103155.50;5039974;28;20582;-73
2023/12/16 07:19:23;;;;;;;34.83;11.77;;;;;;;5.24;100.00;103156.53;5037265;28;20219;-75
2023/12/16 07:21:50;;;;;;;28.20;10.83;;;;;;;5.25;100.00;103155.50;5038911;28;20210;-73
2023/12/16 07:24:16;;;;;;;34.23;10.93;;;;;;;5.25;100.00;103165.97;5038405;28;20238;-74
2023/12/16 07:26:42;;;;;;;28.40;10.60;;;;;;;5.26;100.00;103172.81;5020577;28;20235;-74
2023/12/16 07:29:09;;;;;;;30.87;11.07;;;;;;;5.26;100.00;103175.44;5039023;28;20222;-75
2023/12/16 07:31:36;;;;;;;34.83;10.40;;;;;;;5.27;100.00;103190.09;5043995;28;20221;-74
2023/12/16 07:34:03;;;;;;;30.53;11.27;;;;;;;5.26;100.00;103186.72;5036023;28;20192;-75
2023/12/16 07:36:29;;;;;;;35.07;10.00;;;;;;;5.26;100.00;103199.81;5039314;28;20190;-74
2023/12/16 07:38:57;;;;;;;28.03;11.47;;;;;;;5.28;100.00;103203.00;5038757;28;20227;-74
2023/12/16 07:41:24;;;;;;;35.70;11.70;;;;;;;5.28;100.00;103194.34;5018569;28;20531;-75
2023/12/16 07:43:50;;;;;;;30.03;11.57;;;;;;;5.29;100.00;103193.31;5034671;28;20208;-73
2023/12/16 07:46:17;;;;;;;24.57;10.53;;;;;;;5.31;100.00;103186.03;5035441;28;20203;-74
2023/12/16 07:48:44;;;;;;;28.67;10.60;;;;;;;5.30;100.00;103177.38;5037558;28;20220;-74
2023/12/16 07:51:15;;;;;;;32.60;10.50;;;;;;;5.30;100.00;103177.38;5019132;28;20574;-72
2023/12/16 07:53:43;;;;;;;30.03;11.17;;;;;;;5.33;100.00;103184.00;5040340;28;20206;-74
2023/12/16 07:56:15;;;;;;;29.47;11.50;;;;;;;5.35;100.00;103187.16;5044546;28;20257;-74
2023/12/16 07:58:42;;;;;;;31.30;10.63;;;;;;;5.35;100.00;103172.25;5041738;28;20447;-75
2023/12/16 08:01:12;;;;;;;35.53;10.93;;;;;;;5.37;100.00;103177.25;5042733;28;20195;-74
2023/12/16 08:03:39;;;;;;;20.30;9.57;;;;;;;5.37;100.00;103177.25;5046761;28;20199;-72
2023/12/16 08:06:08;;;;;;;31.40;11.30;;;;;;;5.38;100.00;103181.50;5058460;28;20222;-72
2023/12/16 08:08:35;;;;;;;21.77;9.67;;;;;;;5.40;100.00;103188.09;5058687;28;20239;-72
2023/12/16 08:11:01;;;;;;;26.87;10.43;;;;;;;5.41;100.00;103178.41;5042449;28;20199;-73
2023/12/16 08:13:28;;;;;;;28.20;9.90;;;;;;;5.43;100.00;103187.63;5038464;28;20200;-73
2023/12/16 08:15:54;;;;;;;29.97;10.47;;;;;;;5.44;100.00;103183.19;5050812;28;20192;-74
2023/12/16 08:18:20;;;;;;;33.03;11.40;;;;;;;5.45;100.00;103182.94;5037465;28;20564;-72
2023/12/16 08:20:47;;;;;;;22.90;10.63;;;;;;;5.47;100.00;103190.59;5040639;28;20199;-74
2023/12/16 08:23:14;;;;;;;25.27;9.33;;;;;;;5.48;100.00;103189.56;5038440;28;20195;-74
2023/12/16 08:25:41;;;;;;;24.67;9.63;;;;;;;5.48;100.00;103192.97;5039571;28;20229;-74
2023/12/16 08:28:07;;;;;;;23.33;9.57;;;;;;;5.51;100.00;103195.16;5019950;28;20226;-74
2023/12/16 08:30:34;;;;;;;24.87;9.97;;;;;;;5.52;100.00;103199.38;5037900;28;20671;-75
2023/12/16 08:33:00;;;;;;;26.07;9.67;;;;;;;5.54;100.00;103201.75;5019113;28;20204;-73
2023/12/16 08:35:28;;;;;;;30.23;9.20;;;;;;;5.56;100.00;103207.56;5040348;28;20199;-74
2023/12/16 08:37:55;;;;;;;24.07;8.53;;;;;;;5.57;100.00;103206.53;5042869;28;20195;-74
2023/12/16 08:40:22;;;;;;;33.10;9.90;;;;;;;5.61;100.00;103205.06;5039545;28;20199;-74
2023/12/16 08:42:49;;;;;;;25.23;9.07;;;;;;;5.62;100.00;103211.91;5039353;28;20235;-74
2023/12/16 08:45:16;;;;;;;22.07;8.37;;;;;;;5.64;100.00;103215.09;5035682;28;20203;-74
2023/12/16 08:47:42;;;;;;;22.40;8.60;;;;;;;5.64;100.00;103209.84;5043508;28;20218;-73
2023/12/16 08:50:09;;;;;;;24.07;8.93;;;;;;;5.65;100.00;103217.47;5018800;28;20215;-74
2023/12/16 08:52:36;;;;;;;21.10;8.47;;;;;;;5.68;100.00;103211.78;5040112;28;20211;-74
2023/12/16 08:55:04;;;;;;;18.40;7.47;;;;;;;5.71;100.00;103215.78;5039106;28;20458;-74
2023/12/16 08:57:32;;;;;;;18.07;8.63;;;;;;;5.73;100.00;103216.31;5039222;28;20261;-74
2023/12/16 08:59:59;;;;;;;23.77;9.10;;;;;;;5.73;100.00;103217.13;5040794;28;20199;-72
2023/12/16 09:02:25;;;;;;;15.77;7.93;;;;;;;5.75;100.00;103206.44;5040836;28;20215;-73
2023/12/16 09:04:52;;;;;;;27.43;8.63;;;;;;;5.76;100.00;103206.19;5045518;28;20210;-73
2023/12/16 09:07:18;;;;;;;14.17;7.60;;;;;;;5.78;100.00;103206.75;5043548;28;20191;-74
2023/12/16 09:09:45;;;;;;;19.80;7.80;;;;;;;5.81;100.00;103213.41;5044286;28;20222;-72
2023/12/16 09:12:11;;;;;;;19.67;7.53;;;;;;;5.81;100.00;103221.28;5040990;28;20609;-73
2023/12/16 09:14:39;;;;;;;22.53;8.10;;;;;;;5.84;100.00;103216.34;5039923;28;20199;-73
2023/12/16 09:17:05;;;;;;;17.20;8.13;;;;;;;5.87;100.00;103230.84;5038575;28;20212;-73
2023/12/16 09:19:32;;;;;;;24.50;7.27;;;;;;;5.88;100.00;103217.50;5041507;28;20228;-74
2023/12/16 09:21:58;;;;;;;16.83;6.87;;;;;;;5.89;100.00;103215.66;5038664;28;20195;-74
2023/12/16 09:24:24;;;;;;;12.80;6.70;;;;;;;5.92;100.00;103220.47;5039750;28;20500;-73
2023/12/16 09:26:51;;;;;;;16.23;6.63;;;;;;;5.93;100.00;103215.00;5042634;28;20202;-73
2023/12/16 09:29:18;;;;;;;20.67;7.00;;;;;;;5.95;100.00;103218.16;5038505;28;20215;-72
2023/12/16 09:31:45;;;;;;;17.10;6.77;;;;;;;5.99;100.00;103223.75;5042928;28;20203;-74
2023/12/16 09:34:12;;;;;;;17.27;6.30;;;;;;;6.01;100.00;103216.47;5041058;28;20567;-73
2023/12/16 09:36:38;;;;;;;11.20;6.37;;;;;;;6.03;100.00;103214.38;5038611;28;20555;-74
2023/12/16 09:39:04;;;;;;;16.27;5.87;;;;;;;6.04;100.00;103200.25;5041741;28;20249;-74
2023/12/16 09:41:31;;;;;;;14.30;6.93;;;;;;;6.08;100.00;103198.75;5041833;28;20196;-74
2023/12/16 09:43:59;;;;;;;17.77;6.60;;;;;;;6.09;100.00;103203.78;5041949;28;20203;-73
2023/12/16 09:46:29;;;;;;;19.97;9.07;;;;;;;6.11;100.00;103193.06;5038905;28;20971;-73
2023/12/16 09:48:56;;;;;;;14.80;6.27;;;;;;;6.14;100.00;103185.53;5021752;28;20231;-74
2023/12/16 09:51:24;;;;;;;17.97;5.57;;;;;;;6.16;100.00;103190.53;5038481;28;20274;-74
2023/12/16 09:53:51;;;;;;;15.53;6.23;;;;;;;6.19;100.00;103184.81;5038103;28;20204;-73
2023/12/16 09:56:18;;;;;;;12.90;5.60;;;;;;;6.21;100.00;103178.31;5038744;28;20311;-74
2023/12/16 09:58:46;;;;;;;12.07;5.33;;;;;;;6.23;100.00;103165.78;5039523;28;20224;-72
2023/12/16 10:01:13;;;;;;;16.77;5.90;;;;;;;6.25;100.00;103158.44;5040571;28;20195;-74
2023/12/16 10:03:41;;;;;;;13.20;5.50;;;;;;;6.28;100.00;103165.88;5019785;28;20208;-73
2023/12/16 10:06:10;;;;;;;12.13;5.47;;;;;;;6.31;100.00;103160.13;5039402;28;20218;-73
2023/12/16 10:08:38;;;;;;;13.77;5.37;;;;;;;6.33;100.00;103152.81;5039157;28;20219;-73
2023/12/16 10:11:05;;;;;;;17.33;5.63;;;;;;;6.36;100.00;103164.66;5040062;28;20199;-74
2023/12/16 10:13:33;;;;;;;10.63;5.23;;;;;;;6.37;100.00;103161.81;5021141;28;20211;-74
2023/12/16 10:15:59;;;;;;;12.30;4.60;;;;;;;6.41;100.00;103162.94;5039418;28;20192;-74
2023/12/16 10:18:26;;;;;;;11.17;4.93;;;;;;;6.43;100.00;103157.47;5037072;28;20223;-74
2023/12/16 10:20:55;;;;;;;11.33;4.53;;;;;;;6.46;100.00;103157.78;5037243;28;20202;-74
2023/12/16 10:23:23;;;;;;;8.17;4.20;;;;;;;6.51;100.00;103157.06;5039494;28;20313;-73
2023/12/16 10:25:50;;;;;;;14.10;5.90;;;;;;;6.53;100.00;103157.66;5036849;28;20211;-74
2023/12/16 10:28:16;;;;;;;14.70;5.33;;;;;;;6.56;100.00;103146.66;5036251;28;20259;-74
2023/12/16 10:30:43;;;;;;;8.93;4.47;;;;;;;6.59;100.00;103154.88;5036591;28;20202;-74
2023/12/16 10:33:09;;;;;;;11.77;4.57;;;;;;;6.63;100.00;103145.50;5040250;28;20199;-72
2023/12/16 10:35:37;;;;;;;9.07;4.03;;;;;;;6.67;100.00;103148.44;5021759;28;20209;-74
2023/12/16 10:38:05;;;;;;;17.57;5.07;;;;;;;6.71;100.00;103146.94;5040037;28;21068;-74
2023/12/16 10:40:37;;;;;;;11.40;4.67;;;;;;;6.73;100.00;103142.25;5040941;28;20210;-73
2023/12/16 10:43:04;;;;;;;9.23;3.90;;;;;;;6.75;100.00;103142.81;5039369;28;20622;-74
2023/12/16 10:45:30;;;;;;;12.53;4.17;;;;;;;6.77;100.00;103138.91;5036470;28;20208;-74
2023/12/16 10:48:00;;;;;;;12.20;4.23;;;;;;;6.81;100.00;103145.28;5038004;28;20222;-73
2023/12/16 10:50:29;;;;;;;9.93;4.10;;;;;;;6.83;100.00;103143.19;5037825;28;20199;-74
2023/12/16 10:52:57;;;;;;;9.33;4.00;;;;;;;6.87;100.00;103141.69;5041185;28;20463;-73
2023/12/16 10:55:28;;;;;;;11.87;3.83;;;;;;;6.91;100.00;103134.94;5042246;28;20682;-73
2023/12/16 10:58:04;;;;;;;6.40;3.57;;;;;;;6.93;100.00;103132.84;5042418;28;20593;-73
2023/12/16 11:00:34;;;;;;;10.80;4.40;;;;;;;6.96;100.00;103128.97;5039397;28;20195;-74
2023/12/16 11:03:04;;;;;;;9.87;3.30;;;;;;;6.99;100.00;103125.88;5022655;28;20192;-74
2023/12/16 11:05:34;;;;;;;10.27;3.57;;;;;;;7.02;100.00;103126.19;5044239;28;20563;-74
2023/12/16 11:08:02;;;;;;;9.00;3.67;;;;;;;7.06;100.00;103115.97;5036655;28;20232;-73
2023/12/16 11:10:30;;;;;;;10.47;4.80;;;;;;;7.08;100.00;103114.72;5040637;28;20229;-74